Map

Track Data

SID SEASON NUMBER BASIN SUBBASIN NAME ISO_TIME NATURE LAT LON WMO_WIND WMO_PRES WMO_AGENCY TRACK_TYPE DIST2LAND LANDFALL IFLAG USA_AGENCY USA_ATCF_ID USA_LAT USA_LON USA_RECORD USA_STATUS USA_WIND USA_PRES USA_SSHS USA_R34_NE USA_R34_SE USA_R34_SW USA_R34_NW USA_R50_NE USA_R50_SE USA_R50_SW USA_R50_NW USA_R64_NE USA_R64_SE USA_R64_SW USA_R64_NW USA_POCI USA_ROCI USA_RMW USA_EYE TOKYO_LAT TOKYO_LON TOKYO_GRADE TOKYO_WIND TOKYO_PRES TOKYO_R50_DIR TOKYO_R50_LONG TOKYO_R50_SHORT TOKYO_R30_DIR TOKYO_R30_LONG TOKYO_R30_SHORT TOKYO_LAND CMA_LAT CMA_LON CMA_CAT CMA_WIND CMA_PRES HKO_LAT HKO_LON HKO_CAT HKO_WIND HKO_PRES NEWDELHI_LAT NEWDELHI_LON NEWDELHI_GRADE NEWDELHI_WIND NEWDELHI_PRES NEWDELHI_CI NEWDELHI_DP NEWDELHI_POCI REUNION_LAT REUNION_LON REUNION_TYPE REUNION_WIND REUNION_PRES REUNION_TNUM REUNION_CI REUNION_RMW REUNION_R34_NE REUNION_R34_SE REUNION_R34_SW REUNION_R34_NW REUNION_R50_NE REUNION_R50_SE REUNION_R50_SW REUNION_R50_NW REUNION_R64_NE REUNION_R64_SE REUNION_R64_SW REUNION_R64_NW BOM_LAT BOM_LON BOM_TYPE BOM_WIND BOM_PRES BOM_TNUM BOM_CI BOM_RMW BOM_R34_NE BOM_R34_SE BOM_R34_SW BOM_R34_NW BOM_R50_NE BOM_R50_SE BOM_R50_SW BOM_R50_NW BOM_R64_NE BOM_R64_SE BOM_R64_SW BOM_R64_NW BOM_ROCI BOM_POCI BOM_EYE BOM_POS_METHOD BOM_PRES_METHOD NADI_LAT NADI_LON NADI_CAT NADI_WIND NADI_PRES WELLINGTON_LAT WELLINGTON_LON WELLINGTON_WIND WELLINGTON_PRES DS824_LAT DS824_LON DS824_STAGE DS824_WIND DS824_PRES TD9636_LAT TD9636_LON TD9636_STAGE TD9636_WIND TD9636_PRES TD9635_LAT TD9635_LON TD9635_WIND TD9635_PRES TD9635_ROCI NEUMANN_LAT NEUMANN_LON NEUMANN_CLASS NEUMANN_WIND NEUMANN_PRES MLC_LAT MLC_LON MLC_CLASS MLC_WIND MLC_PRES USA_GUST BOM_GUST BOM_GUST_PER REUNION_GUST REUNION_GUST_PER USA_SEAHGT USA_SEARAD_NE USA_SEARAD_SE USA_SEARAD_SW USA_SEARAD_NW STORM_SPEED STORM_DIR
1938042S15059 1938 14 SI MM NOT_NAMED 1938-02-11 06:00:00 NR -15.1000 59.0000 reunion main 576 560 _____O________ -1 -15.1000 59.0000 99 9.90000 4 234
1938042S15059 1938 14 SI MM NOT_NAMED 1938-02-11 09:00:00 NR -15.2104 58.8401 main 560 547 _____P________ -1 -15.2104 58.8401 99 4 234
1938042S15059 1938 14 SI MM NOT_NAMED 1938-02-11 12:00:00 NR -15.3256 58.6834 main 547 532 _____P________ -1 -15.3256 58.6834 99 4 231
1938042S15059 1938 14 SI MM NOT_NAMED 1938-02-11 15:00:00 NR -15.4508 58.5333 main 521 508 _____P________ -1 -15.4508 58.5333 99 4 227
1938042S15059 1938 14 SI MM NOT_NAMED 1938-02-11 18:00:00 NR -15.5908 58.3932 main 508 496 _____P________ -1 -15.5908 58.3932 99 4 220
1938042S15059 1938 14 SI MM NOT_NAMED 1938-02-11 21:00:00 NR -15.7507 58.2664 main 485 472 _____P________ -1 -15.7507 58.2664 99 4 213
1938042S15059 1938 14 SI MM NOT_NAMED 1938-02-12 00:00:00 NR -15.9355 58.1564 main 472 449 _____P________ -1 -15.9355 58.1564 99 4 206
1938042S15059 1938 14 SI MM NOT_NAMED 1938-02-12 03:00:00 NR -16.1502 58.0665 main 438 415 _____P________ -1 -16.1502 58.0665 99 5 198
1938042S15059 1938 14 SI MM NOT_NAMED 1938-02-12 06:00:00 NR -16.4000 58.0000 reunion main 415 381 _____O________ -1 -16.4000 58.0000 99 9.90000 6 191
1938042S15059 1938 14 SI MM NOT_NAMED 1938-02-12 09:00:00 NR -16.6873 57.9596 main 381 347 _____P________ -1 -16.6873 57.9596 99 6 186
1938042S15059 1938 14 SI MM NOT_NAMED 1938-02-12 12:00:00 NR -17.0049 57.9447 main 347 313 _____P________ -1 -17.0049 57.9447 99 7 182
1938042S15059 1938 14 SI MM NOT_NAMED 1938-02-12 15:00:00 NR -17.3431 57.9535 main 314 270 _____P________ -1 -17.3431 57.9535 99 7 176
1938042S15059 1938 14 SI MM NOT_NAMED 1938-02-12 18:00:00 NR -17.6921 57.9845 main 270 237 _____P________ -1 -17.6921 57.9845 99 7 174
1938042S15059 1938 14 SI MM NOT_NAMED 1938-02-12 21:00:00 NR -18.0420 58.0363 main 237 194 _____P________ -1 -18.0420 58.0363 99 7 170
1938042S15059 1938 14 SI MM NOT_NAMED 1938-02-13 00:00:00 NR -18.3832 58.1072 main 194 165 _____P________ -1 -18.3832 58.1072 99 7 167
1938042S15059 1938 14 SI MM NOT_NAMED 1938-02-13 03:00:00 NR -18.7057 58.1957 main 165 138 _____P________ -1 -18.7057 58.1957 99 6 164
1938042S15059 1938 14 SI MM NOT_NAMED 1938-02-13 06:00:00 NR -19.0000 58.3000 reunion main 138 124 _____O________ -1 -19.0000 58.3000 99 9.90000 5 160
1938042S15059 1938 14 SI MM NOT_NAMED 1938-02-13 09:00:00 NR -19.2056 58.3862 main 124 114 _____P________ -1 -19.2056 58.3862 99 4 155
1938042S15059 1938 14 SI MM NOT_NAMED 1938-02-13 12:00:00 NR -19.3829 58.4886 main 114 107 _____P________ -1 -19.3829 58.4886 99 4 148
1938042S15059 1938 14 SI MM NOT_NAMED 1938-02-13 15:00:00 NR -19.5416 58.6082 main 115 109 _____P________ -1 -19.5416 58.6082 99 4 142
1938042S15059 1938 14 SI MM NOT_NAMED 1938-02-13 18:00:00 NR -19.6916 58.7461 main 113 113 _____P________ -1 -19.6916 58.7461 99 4 137
1938042S15059 1938 14 SI MM NOT_NAMED 1938-02-13 21:00:00 NR -19.8426 58.9030 main 127 123 _____P________ -1 -19.8426 58.9030 99 4 135
1938042S15059 1938 14 SI MM NOT_NAMED 1938-02-14 00:00:00 NR -20.0045 59.0803 main 139 137 _____P________ -1 -20.0045 59.0803 99 5 134
1938042S15059 1938 14 SI MM NOT_NAMED 1938-02-14 03:00:00 NR -20.1870 59.2789 main 156 156 _____P________ -1 -20.1870 59.2789 99 6 135
1938042S15059 1938 14 SI MM NOT_NAMED 1938-02-14 06:00:00 NR -20.4000 59.5000 reunion main 177 177 _____O________ -1 -20.4000 59.5000 99 9.90000 7 139
1938042S15059 1938 14 SI MM NOT_NAMED 1938-02-14 09:00:00 NR -20.6987 59.7558 main 213 213 _____P________ -1 -20.6987 59.7558 99 8 141
1938042S15059 1938 14 SI MM NOT_NAMED 1938-02-14 12:00:00 NR -21.0274 60.0387 main 241 241 _____P________ -1 -21.0274 60.0387 99 9 141
1938042S15059 1938 14 SI MM NOT_NAMED 1938-02-14 15:00:00 NR -21.3766 60.3417 main 287 287 _____P________ -1 -21.3766 60.3417 99 9 141
1938042S15059 1938 14 SI MM NOT_NAMED 1938-02-14 18:00:00 NR -21.7368 60.6576 main 338 338 _____P________ -1 -21.7368 60.6576 99 9 141
1938042S15059 1938 14 SI MM NOT_NAMED 1938-02-14 21:00:00 NR -22.0986 60.9789 main 385 385 _____P________ -1 -22.0986 60.9789 99 9 140
1938042S15059 1938 14 SI MM NOT_NAMED 1938-02-15 00:00:00 NR -22.4526 61.2982 main 434 434 _____P________ -1 -22.4526 61.2982 99 9 140
1938042S15059 1938 14 SI MM NOT_NAMED 1938-02-15 03:00:00 NR -22.7895 61.6079 main 477 477 _____P________ -1 -22.7895 61.6079 99 9 139
1938042S15059 1938 14 SI MM NOT_NAMED 1938-02-15 06:00:00 NR -23.1000 61.9000 reunion main 521 521 _____O________ -1 -23.1000 61.9000 99 9.90000 8 139
1938042S15059 1938 14 SI MM NOT_NAMED 1938-02-15 09:00:00 NR -23.3773 62.1686 main 565 565 _____P________ -1 -23.3773 62.1686 99 7 138
1938042S15059 1938 14 SI MM NOT_NAMED 1938-02-15 12:00:00 NR -23.6237 62.4148 main 595 595 _____P________ -1 -23.6237 62.4148 99 6 137
1938042S15059 1938 14 SI MM NOT_NAMED 1938-02-15 15:00:00 NR -23.8435 62.6417 main 624 624 _____P________ -1 -23.8435 62.6417 99 6 136
1938042S15059 1938 14 SI MM NOT_NAMED 1938-02-15 18:00:00 NR -24.0413 62.8525 main 662 662 _____P________ -1 -24.0413 62.8525 99 5 135
1938042S15059 1938 14 SI MM NOT_NAMED 1938-02-15 21:00:00 NR -24.2215 63.0505 main 692 692 _____P________ -1 -24.2215 63.0505 99 5 135
1938042S15059 1938 14 SI MM NOT_NAMED 1938-02-16 00:00:00 NR -24.3884 63.2388 main 713 713 _____P________ -1 -24.3884 63.2388 99 5 134
1938042S15059 1938 14 SI MM NOT_NAMED 1938-02-16 03:00:00 NR -24.5465 63.4209 main 736 736 _____P________ -1 -24.5465 63.4209 99 5 133
1938042S15059 1938 14 SI MM NOT_NAMED 1938-02-16 06:00:00 NR -24.7000 63.6000 reunion main 765 _____O________ -1 -24.7000 63.6000 99 9.90000 4 133

About IBTrACS Database

This database is a web-friendly format of International Best Track Archive for Climate Stewardship (IBTrACS), a global best track data archive curated by NOAA dating back to 1842.

Updated: 2021-10-27